Time;durP1;ratioP1;P1;durP2;ratioP2;P2;SDS_P1;SDS_P2;PMS_P1;PMS_P2;Temp;Humidity;BMP_temperature;BMP_pressure;BME280_temperature;BME280_humidity;BME280_pressure;Samples;Min_cycle;Max_cycle;Signal;HPM_P1;HPM_P2
2023/07/15 00:02:16;;;;;;;;;;;19.30;99.90;;;;;;5134807;27;20293;-42
2023/07/15 00:04:42;;;;;;;;;;;19.30;99.90;;;;;;5133977;27;19908;-40
2023/07/15 00:07:08;;;;;;;;;;;19.30;99.90;;;;;;5129369;27;20361;-41
2023/07/15 00:09:35;;;;;;;;;;;19.20;99.90;;;;;;5134610;27;19955;-41
2023/07/15 00:12:00;;;;;;;;;;;19.20;99.90;;;;;;5133844;27;19908;-41
2023/07/15 00:14:28;;;;;;;;;;;19.20;99.90;;;;;;5134641;27;19908;-42
2023/07/15 00:16:54;;;;;;;;;;;19.20;99.90;;;;;;5134495;27;19915;-41
2023/07/15 00:19:20;;;;;;;;;;;19.10;99.90;;;;;;5133848;27;19908;-42
2023/07/15 00:21:46;;;;;;;;;;;19.10;99.90;;;;;;5134417;27;19908;-44
2023/07/15 00:24:12;;;;;;;;;;;19.10;99.90;;;;;;5134382;27;19933;-42
2023/07/15 00:26:37;;;;;;;;;;;19.10;99.90;;;;;;5133684;27;19908;-41
2023/07/15 00:29:04;;;;;;;;;;;19.10;99.90;;;;;;5134429;27;19986;-42
2023/07/15 00:31:29;;;;;;;;;;;19.00;99.90;;;;;;5134344;27;19930;-42
2023/07/15 00:33:55;;;;;;;;;;;19.10;99.90;;;;;;5133507;27;20370;-41
2023/07/15 00:36:21;;;;;;;;;;;19.00;99.90;;;;;;5143543;27;19912;-42
2023/07/15 00:38:46;;;;;;;;;;;19.10;99.90;;;;;;5154791;27;19911;-41
2023/07/15 00:41:15;;;;;;;;;;;19.10;99.90;;;;;;5153875;27;19964;-41
2023/07/15 00:43:58;;;;;;;;;;;19.10;99.90;;;;;;5154733;27;20361;-43
2023/07/15 00:46:36;;;;;;;;;;;19.10;99.90;;;;;;5154117;27;19914;-43
2023/07/15 00:49:14;;;;;;;;;;;19.10;99.90;;;;;;5154532;27;19915;-42
2023/07/15 00:51:41;;;;;;;;;;;19.10;99.90;;;;;;5153952;27;19907;-42
2023/07/15 00:54:09;;;;;;;;;;;19.20;99.90;;;;;;5153825;27;19911;-42
2023/07/15 00:56:35;;;;;;;;;;;19.20;99.90;;;;;;5149195;27;20006;-42
2023/07/15 00:59:01;;;;;;;;;;;19.20;99.90;;;;;;5133825;27;19911;-42
2023/07/15 01:01:27;;;;;;;;;;;19.20;99.90;;;;;;5133028;27;20344;-42
2023/07/15 01:03:54;;;;;;;;;;;19.30;99.90;;;;;;5133667;27;19922;-43
2023/07/15 01:06:20;;;;;;;;;;;19.30;99.90;;;;;;5133799;27;20439;-44
2023/07/15 01:08:46;;;;;;;;;;;19.30;99.90;;;;;;5132912;28;19923;-41
2023/07/15 01:11:11;;;;;;;;;;;19.40;99.90;;;;;;5133911;28;19908;-43
2023/07/15 01:13:37;;;;;;;;;;;19.40;99.90;;;;;;5133686;28;19908;-42
2023/07/15 01:16:02;;;;;;;;;;;19.40;99.90;;;;;;5135156;27;20270;-43
2023/07/15 01:18:28;;;;;;;;;;;19.50;99.90;;;;;;5154514;27;19911;-43
2023/07/15 01:20:58;;;;;;;;;;;19.50;99.90;;;;;;5154269;27;19914;-41
2023/07/15 01:23:27;;;;;;;;;;;19.50;99.90;;;;;;5153673;27;19988;-41
2023/07/15 01:25:53;;;;;;;;;;;19.60;99.90;;;;;;5154293;27;19955;-42
2023/07/15 01:28:18;;;;;;;;;;;19.60;99.90;;;;;;5154295;27;19919;-41
2023/07/15 01:30:44;;;;;;;;;;;19.70;99.90;;;;;;5153666;27;19918;-41
2023/07/15 01:33:09;;;;;;;;;;;19.70;99.90;;;;;;5154309;27;20365;-41
2023/07/15 01:35:35;;;;;;;;;;;19.70;99.90;;;;;;5153409;27;19907;-42
2023/07/15 01:38:01;;;;;;;;;;;19.80;99.90;;;;;;5154198;27;19919;-41
2023/07/15 01:40:27;;;;;;;;;;;19.80;99.90;;;;;;5154010;27;19925;-42
2023/07/15 01:42:52;;;;;;;;;;;19.80;99.90;;;;;;5153360;27;19946;-41
2023/07/15 01:45:17;;;;;;;;;;;19.90;99.90;;;;;;5154130;27;19911;-41
2023/07/15 01:47:43;;;;;;;;;;;19.90;99.90;;;;;;5137539;27;19966;-42
2023/07/15 01:50:09;;;;;;;;;;;19.90;99.90;;;;;;5132705;28;19936;-42
2023/07/15 01:52:34;;;;;;;;;;;20.00;99.90;;;;;;5133401;28;19937;-42
2023/07/15 01:55:00;;;;;;;;;;;19.90;99.90;;;;;;5133318;28;19912;-41
2023/07/15 01:57:26;;;;;;;;;;;20.00;99.90;;;;;;5132629;28;20016;-41
2023/07/15 01:59:57;;;;;;;;;;;20.00;99.90;;;;;;5109406;27;20539;-41
2023/07/15 02:02:25;;;;;;;;;;;20.00;99.90;;;;;;5133254;27;20266;-42
2023/07/15 02:04:51;;;;;;;;;;;20.00;99.90;;;;;;5136175;27;19907;-40
2023/07/15 02:07:16;;;;;;;;;;;20.00;99.90;;;;;;5137010;27;20016;-42
2023/07/15 02:09:42;;;;;;;;;;;20.00;99.90;;;;;;5137052;27;19915;-41
2023/07/15 02:12:07;;;;;;;;;;;20.00;99.90;;;;;;5136380;27;19907;-42
2023/07/15 02:14:36;;;;;;;;;;;19.90;99.90;;;;;;5136949;27;20350;-42
2023/07/15 02:17:03;;;;;;;;;;;19.90;99.90;;;;;;5147455;27;19954;-43
2023/07/15 02:19:30;;;;;;;;;;;19.90;99.90;;;;;;5156994;27;19960;-42
2023/07/15 02:21:56;;;;;;;;;;;19.80;99.90;;;;;;5157401;27;19914;-41
2023/07/15 02:24:22;;;;;;;;;;;19.70;99.90;;;;;;5157221;27;19911;-40
2023/07/15 02:26:47;;;;;;;;;;;19.70;99.90;;;;;;5156555;27;20372;-42
2023/07/15 02:29:13;;;;;;;;;;;19.70;99.90;;;;;;5157431;27;19954;-43
2023/07/15 02:31:38;;;;;;;;;;;19.60;99.90;;;;;;5157365;27;20250;-42
2023/07/15 02:34:04;;;;;;;;;;;19.60;99.90;;;;;;5156444;27;19918;-44
2023/07/15 02:36:30;;;;;;;;;;;19.60;99.90;;;;;;5157469;27;19941;-41
2023/07/15 02:38:55;;;;;;;;;;;19.50;99.90;;;;;;5156563;27;19926;-41
2023/07/15 02:41:21;;;;;;;;;;;19.50;99.90;;;;;;5156956;27;19919;-43
2023/07/15 02:43:46;;;;;;;;;;;19.50;99.90;;;;;;5157011;27;19907;-41
2023/07/15 02:46:12;;;;;;;;;;;19.40;99.90;;;;;;5155864;27;19915;-45
2023/07/15 02:48:37;;;;;;;;;;;19.40;99.90;;;;;;5156971;27;19915;-42
2023/07/15 02:51:03;;;;;;;;;;;19.40;99.90;;;;;;5156938;27;19966;-41
2023/07/15 02:53:28;;;;;;;;;;;19.40;99.90;;;;;;5156163;27;19907;-41
2023/07/15 02:55:54;;;;;;;;;;;19.40;99.90;;;;;;5156494;27;20011;-44
2023/07/15 02:58:22;;;;;;;;;;;19.40;99.90;;;;;;5156729;27;19941;-43
2023/07/15 03:00:50;;;;;;;;;;;19.30;99.90;;;;;;5156142;27;19907;-41
2023/07/15 03:03:16;;;;;;;;;;;19.30;99.90;;;;;;5156735;27;19907;-40
2023/07/15 03:05:45;;;;;;;;;;;19.30;99.90;;;;;;5156665;27;19914;-42
2023/07/15 03:08:11;;;;;;;;;;;19.20;99.90;;;;;;5155740;27;19915;-41
2023/07/15 03:10:36;;;;;;;;;;;19.20;99.90;;;;;;5156631;27;19907;-42
2023/07/15 03:13:01;;;;;;;;;;;19.20;99.90;;;;;;5156439;27;20014;-40
2023/07/15 03:15:27;;;;;;;;;;;19.20;99.90;;;;;;5155024;27;19914;-40
2023/07/15 03:17:52;;;;;;;;;;;19.10;99.90;;;;;;5138430;27;19915;-43
2023/07/15 03:20:21;;;;;;;;;;;19.10;99.90;;;;;;5135739;27;19907;-42
2023/07/15 03:22:47;;;;;;;;;;;19.00;99.90;;;;;;5134762;27;19914;-42
2023/07/15 03:25:14;;;;;;;;;;;19.00;99.90;;;;;;5135550;27;20266;-41
2023/07/15 03:27:40;;;;;;;;;;;18.90;99.90;;;;;;5135482;27;19915;-41
2023/07/15 03:30:09;;;;;;;;;;;18.90;99.90;;;;;;5134756;27;20018;-41
2023/07/15 03:32:35;;;;;;;;;;;18.90;99.90;;;;;;5135466;27;19994;-42
2023/07/15 03:35:02;;;;;;;;;;;18.90;99.90;;;;;;5135283;27;19911;-42
2023/07/15 03:37:32;;;;;;;;;;;18.80;99.90;;;;;;5134631;27;19907;-42
2023/07/15 03:39:58;;;;;;;;;;;18.70;99.90;;;;;;5134884;27;19994;-44
2023/07/15 03:42:24;;;;;;;;;;;18.70;99.90;;;;;;5134881;27;20331;-41
2023/07/15 03:44:49;;;;;;;;;;;18.70;99.90;;;;;;5135115;27;20068;-41
2023/07/15 03:47:15;;;;;;;;;;;18.60;99.90;;;;;;5135035;27;20178;-42
2023/07/15 03:49:43;;;;;;;;;;;18.60;99.90;;;;;;5134214;27;19912;-41
2023/07/15 03:52:08;;;;;;;;;;;18.60;99.90;;;;;;5135040;27;20339;-41
2023/07/15 03:54:33;;;;;;;;;;;18.60;99.90;;;;;;5134885;27;19958;-42
2023/07/15 03:56:59;;;;;;;;;;;18.50;99.90;;;;;;5134220;27;19912;-42
2023/07/15 03:59:24;;;;;;;;;;;18.50;99.90;;;;;;5134895;27;20380;-41
2023/07/15 04:01:50;;;;;;;;;;;18.40;99.90;;;;;;5134869;27;19907;-41
2023/07/15 04:04:15;;;;;;;;;;;18.40;99.90;;;;;;5134094;27;20369;-40
2023/07/15 04:06:41;;;;;;;;;;;18.40;99.90;;;;;;5134527;27;19912;-43
2023/07/15 04:09:06;;;;;;;;;;;18.40;99.90;;;;;;5134345;27;20414;-41
2023/07/15 04:11:32;;;;;;;;;;;18.40;99.90;;;;;;5133820;27;19908;-42
2023/07/15 04:13:58;;;;;;;;;;;18.40;99.90;;;;;;5134503;27;19914;-43
2023/07/15 04:16:23;;;;;;;;;;;18.40;99.90;;;;;;5134734;27;20258;-43
2023/07/15 04:18:49;;;;;;;;;;;18.40;99.90;;;;;;5133690;27;20284;-41
2023/07/15 04:21:14;;;;;;;;;;;18.40;99.90;;;;;;5134426;27;19907;-40
2023/07/15 04:23:40;;;;;;;;;;;18.50;99.90;;;;;;5134361;27;19907;-43
2023/07/15 04:26:07;;;;;;;;;;;18.40;99.90;;;;;;5133562;27;19914;-42
2023/07/15 04:28:33;;;;;;;;;;;18.40;99.90;;;;;;5134274;27;19916;-42
2023/07/15 04:30:58;;;;;;;;;;;18.50;99.90;;;;;;5134261;27;19907;-41
2023/07/15 04:33:24;;;;;;;;;;;18.50;99.90;;;;;;5133481;27;20350;-46
2023/07/15 04:35:49;;;;;;;;;;;18.50;99.90;;;;;;5134071;27;19908;-42
2023/07/15 04:38:15;;;;;;;;;;;18.50;99.90;;;;;;5134120;27;19950;-42
2023/07/15 04:40:40;;;;;;;;;;;18.50;99.90;;;;;;5132969;27;20010;-43
2023/07/15 04:43:06;;;;;;;;;;;18.50;99.90;;;;;;5134059;27;19908;-41
2023/07/15 04:45:32;;;;;;;;;;;18.60;99.90;;;;;;5133871;27;20261;-42
2023/07/15 04:47:58;;;;;;;;;;;18.60;99.90;;;;;;5133718;27;19915;-41
2023/07/15 04:50:24;;;;;;;;;;;18.60;99.90;;;;;;5134017;27;19914;-41
2023/07/15 04:52:49;;;;;;;;;;;18.60;99.90;;;;;;5133098;27;20378;-42
2023/07/15 04:55:15;;;;;;;;;;;18.60;99.90;;;;;;5133889;27;19918;-41
2023/07/15 04:57:40;;;;;;;;;;;18.60;99.90;;;;;;5133922;27;19907;-41
2023/07/15 05:00:10;;;;;;;;;;;18.70;99.90;;;;;;5133106;27;19911;-42
2023/07/15 05:02:36;;;;;;;;;;;18.70;99.90;;;;;;5133846;27;19931;-40
2023/07/15 05:05:02;;;;;;;;;;;18.70;99.90;;;;;;5133741;27;19908;-41
2023/07/15 05:07:27;;;;;;;;;;;18.80;99.90;;;;;;5117005;27;20278;-41
2023/07/15 05:09:54;;;;;;;;;;;18.80;99.90;;;;;;5115392;28;19908;-42
2023/07/15 05:12:19;;;;;;;;;;;18.80;99.90;;;;;;5116349;28;19961;-42
2023/07/15 05:14:44;;;;;;;;;;;18.90;99.90;;;;;;5112414;28;19959;-43
2023/07/15 05:17:10;;;;;;;;;;;19.00;99.90;;;;;;5126841;27;19911;-42
2023/07/15 05:19:35;;;;;;;;;;;19.00;99.90;;;;;;5133709;28;19922;-42
2023/07/15 05:22:01;;;;;;;;;;;19.10;99.90;;;;;;5132730;28;19914;-42
2023/07/15 05:24:28;;;;;;;;;;;19.20;99.90;;;;;;5133655;28;19908;-42
2023/07/15 05:26:56;;;;;;;;;;;19.20;99.90;;;;;;5128408;28;19919;-43
2023/07/15 05:29:22;;;;;;;;;;;19.30;99.90;;;;;;5112310;28;19908;-42
2023/07/15 05:31:48;;;;;;;;;;;19.40;99.90;;;;;;5112951;28;19908;-42
2023/07/15 05:34:14;;;;;;;;;;;19.50;99.90;;;;;;5113033;28;20388;-41
2023/07/15 05:36:39;;;;;;;;;;;19.60;99.90;;;;;;5112256;28;20003;-42
2023/07/15 05:39:04;;;;;;;;;;;19.60;99.90;;;;;;5115492;28;20293;-42
2023/07/15 05:41:30;;;;;;;;;;;19.70;99.90;;;;;;5116907;28;19920;-42
2023/07/15 05:43:55;;;;;;;;;;;19.70;99.90;;;;;;5116099;28;19908;-42
2023/07/15 05:46:21;;;;;;;;;;;19.80;99.90;;;;;;5119220;27;20260;-41
2023/07/15 05:48:46;;;;;;;;;;;19.90;99.90;;;;;;5136810;27;20009;-42
2023/07/15 05:51:12;;;;;;;;;;;19.90;99.90;;;;;;5133176;27;20373;-41
2023/07/15 05:53:38;;;;;;;;;;;19.90;99.90;;;;;;5119293;27;19912;-41
2023/07/15 05:56:03;;;;;;;;;;;20.00;99.90;;;;;;5129411;27;20287;-41
2023/07/15 05:58:29;;;;;;;;;;;20.00;99.90;;;;;;5136504;27;19954;-41
2023/07/15 06:00:55;;;;;;;;;;;20.10;99.90;;;;;;5136215;27;19964;-44
2023/07/15 06:03:20;;;;;;;;;;;20.10;99.90;;;;;;5119398;27;20004;-41
2023/07/15 06:05:46;;;;;;;;;;;20.30;99.90;;;;;;5122555;27;20408;-44
2023/07/15 06:08:11;;;;;;;;;;;20.30;99.90;;;;;;5117199;27;19920;-41
2023/07/15 06:10:37;;;;;;;;;;;20.50;99.90;;;;;;5121394;27;20274;-42
2023/07/15 06:13:02;;;;;;;;;;;20.50;99.90;;;;;;5130069;27;20281;-41
2023/07/15 06:15:28;;;;;;;;;;;20.70;99.90;;;;;;5116403;28;19998;-41
2023/07/15 06:17:55;;;;;;;;;;;20.70;99.90;;;;;;5143202;27;20323;-41
2023/07/15 06:20:21;;;;;;;;;;;20.80;99.90;;;;;;5134763;27;19912;-41
2023/07/15 06:22:47;;;;;;;;;;;20.80;99.90;;;;;;5123977;27;19964;-41
2023/07/15 06:25:14;;;;;;;;;;;20.90;99.90;;;;;;5115250;28;19961;-41
2023/07/15 06:27:39;;;;;;;;;;;20.90;99.90;;;;;;5127328;27;19920;-42
2023/07/15 06:30:06;;;;;;;;;;;21.00;99.90;;;;;;5119756;27;19941;-41
2023/07/15 06:32:32;;;;;;;;;;;21.00;99.90;;;;;;5115297;28;19907;-41
2023/07/15 06:34:57;;;;;;;;;;;21.10;99.90;;;;;;5115820;28;20290;-41
2023/07/15 06:37:23;;;;;;;;;;;21.10;99.90;;;;;;5116040;28;19908;-41
2023/07/15 06:39:48;;;;;;;;;;;21.20;99.90;;;;;;5114905;28;19908;-41
2023/07/15 06:42:14;;;;;;;;;;;21.20;99.90;;;;;;5116088;28;19908;-40
2023/07/15 06:44:39;;;;;;;;;;;21.30;99.90;;;;;;5115829;28;20375;-42
2023/07/15 06:47:05;;;;;;;;;;;21.40;99.90;;;;;;5124007;27;19911;-40
2023/07/15 06:49:30;;;;;;;;;;;21.50;99.90;;;;;;5128678;27;20076;-40
2023/07/15 06:51:55;;;;;;;;;;;21.50;99.90;;;;;;5142221;27;19914;-41
2023/07/15 06:54:21;;;;;;;;;;;21.50;99.90;;;;;;5135537;27;19908;-41
2023/07/15 06:56:47;;;;;;;;;;;21.60;99.90;;;;;;5134134;27;19907;-41
2023/07/15 06:59:12;;;;;;;;;;;21.60;99.90;;;;;;5112130;28;19999;-40
2023/07/15 07:01:38;;;;;;;;;;;21.70;99.90;;;;;;5118971;27;19964;-40
2023/07/15 07:04:04;;;;;;;;;;;21.80;99.90;;;;;;5124432;27;20010;-40
2023/07/15 07:06:30;;;;;;;;;;;21.80;99.90;;;;;;5125314;27;19919;-43
2023/07/15 07:08:55;;;;;;;;;;;21.90;99.90;;;;;;5135244;27;19919;-41
2023/07/15 07:11:21;;;;;;;;;;;22.00;99.90;;;;;;5137442;27;19918;-41
2023/07/15 07:13:46;;;;;;;;;;;22.00;99.90;;;;;;5115651;27;20328;-42
2023/07/15 07:16:12;;;;;;;;;;;22.10;99.90;;;;;;5123998;27;19918;-41
2023/07/15 07:18:37;;;;;;;;;;;22.10;99.90;;;;;;5135561;27;20418;-40
2023/07/15 07:21:03;;;;;;;;;;;22.20;99.90;;;;;;5120931;27;20308;-41
2023/07/15 07:23:31;;;;;;;;;;;22.30;99.90;;;;;;5115067;28;19908;-41
2023/07/15 07:25:56;;;;;;;;;;;22.40;99.90;;;;;;5122369;27;19911;-41
2023/07/15 07:28:25;;;;;;;;;;;22.50;99.90;;;;;;5139745;27;19975;-42
2023/07/15 07:30:50;;;;;;;;;;;22.50;99.90;;;;;;5129751;27;19912;-40
2023/07/15 07:33:16;;;;;;;;;;;22.50;99.90;;;;;;5114766;28;19908;-40
2023/07/15 07:35:45;;;;;;;;;;;22.60;99.90;;;;;;5113834;28;19908;-41
2023/07/15 07:38:12;;;;;;;;;;;22.70;99.90;;;;;;5122016;27;20370;-41
2023/07/15 07:40:37;;;;;;;;;;;22.80;99.90;;;;;;5117800;27;19919;-41
2023/07/15 07:43:04;;;;;;;;;;;22.80;99.90;;;;;;5115181;27;19911;-41
2023/07/15 07:45:30;;;;;;;;;;;22.90;99.90;;;;;;5114342;27;19911;-42
2023/07/15 07:47:56;;;;;;;;;;;23.00;99.90;;;;;;5115285;27;19938;-41
2023/07/15 07:50:21;;;;;;;;;;;23.00;99.90;;;;;;5125653;27;19918;-40
2023/07/15 07:52:47;;;;;;;;;;;23.00;99.90;;;;;;5126012;27;19908;-41
2023/07/15 07:55:12;;;;;;;;;;;23.10;99.90;;;;;;5134688;27;19911;-42
2023/07/15 07:57:38;;;;;;;;;;;23.20;99.90;;;;;;5153291;27;19919;-40
2023/07/15 08:00:04;;;;;;;;;;;23.40;99.90;;;;;;5118891;27;19922;-41
2023/07/15 08:02:30;;;;;;;;;;;23.50;99.90;;;;;;5113156;28;19908;-42
2023/07/15 08:04:55;;;;;;;;;;;23.60;99.90;;;;;;5124708;27;20031;-41
2023/07/15 08:07:21;;;;;;;;;;;23.60;99.90;;;;;;5135966;27;20033;-40
2023/07/15 08:09:46;;;;;;;;;;;23.60;99.90;;;;;;5124508;27;19915;-40
2023/07/15 08:12:12;;;;;;;;;;;23.60;99.90;;;;;;5113528;28;19907;-42
2023/07/15 08:14:37;;;;;;;;;;;23.60;99.90;;;;;;5117081;27;19981;-41
2023/07/15 08:17:03;;;;;;;;;;;23.50;99.90;;;;;;5121296;27;19911;-41
2023/07/15 08:19:28;;;;;;;;;;;23.70;99.90;;;;;;5123403;27;19917;-43
2023/07/15 08:21:54;;;;;;;;;;;23.70;99.90;;;;;;5120408;27;20006;-41
2023/07/15 08:24:19;;;;;;;;;;;23.80;99.90;;;;;;5122996;27;19975;-42
2023/07/15 08:26:45;;;;;;;;;;;23.90;99.90;;;;;;5127853;27;19911;-42
2023/07/15 08:29:10;;;;;;;;;;;23.90;99.90;;;;;;5122054;27;19923;-40
2023/07/15 08:31:35;;;;;;;;;;;24.00;99.90;;;;;;5111131;28;19923;-40
2023/07/15 08:34:01;;;;;;;;;;;24.10;99.90;;;;;;5119266;27;20363;-41
2023/07/15 08:36:27;;;;;;;;;;;24.20;99.90;;;;;;5135612;27;19911;-42
2023/07/15 08:38:53;;;;;;;;;;;24.20;99.90;;;;;;5134063;27;19915;-40
2023/07/15 08:41:22;;;;;;;;;;;24.20;99.90;;;;;;5134549;27;19919;-46
2023/07/15 08:43:47;;;;;;;;;;;24.30;99.90;;;;;;5134785;27;19908;-41
2023/07/15 08:46:17;;;;;;;;;;;24.30;99.90;;;;;;5134229;27;20007;-42
2023/07/15 08:48:43;;;;;;;;;;;24.30;99.90;;;;;;5134692;27;20350;-41
2023/07/15 08:51:09;;;;;;;;;;;24.40;99.90;;;;;;5134771;27;19914;-40
2023/07/15 08:53:35;;;;;;;;;;;24.50;99.90;;;;;;5134204;27;19908;-41
2023/07/15 08:56:01;;;;;;;;;;;24.50;99.90;;;;;;5134498;27;19911;-41
2023/07/15 08:58:27;;;;;;;;;;;24.60;99.90;;;;;;5130334;27;19911;-42
2023/07/15 09:00:53;;;;;;;;;;;24.70;99.90;;;;;;5131920;27;19919;-45
2023/07/15 09:03:19;;;;;;;;;;;24.90;99.90;;;;;;5133783;27;19911;-40
2023/07/15 09:05:45;;;;;;;;;;;25.10;99.90;;;;;;5126062;27;19912;-41
2023/07/15 09:08:12;;;;;;;;;;;25.20;99.90;;;;;;5144384;27;19962;-41
2023/07/15 09:10:58;;;;;;;;;;;25.40;99.90;;;;;;5154042;27;19912;-41
2023/07/15 09:13:24;;;;;;;;;;;25.40;99.90;;;;;;5140718;27;19911;-41
2023/07/15 09:15:53;;;;;;;;;;;25.50;99.90;;;;;;5133661;28;19907;-41
2023/07/15 09:18:19;;;;;;;;;;;25.50;99.90;;;;;;5133521;28;20432;-43
2023/07/15 09:20:45;;;;;;;;;;;25.50;99.90;;;;;;5132759;28;20011;-42
2023/07/15 09:23:11;;;;;;;;;;;25.40;99.90;;;;;;5133224;28;20002;-42
2023/07/15 09:25:36;;;;;;;;;;;25.30;99.90;;;;;;5132873;28;19951;-41
2023/07/15 09:28:02;;;;;;;;;;;25.20;99.90;;;;;;5115729;28;19924;-40
2023/07/15 09:30:27;;;;;;;;;;;25.10;99.90;;;;;;5120786;27;19916;-42
2023/07/15 09:32:53;;;;;;;;;;;25.10;99.90;;;;;;5130562;27;19916;-41
2023/07/15 09:35:20;;;;;;;;;;;25.10;99.90;;;;;;5132519;27;19911;-41
2023/07/15 09:37:46;;;;;;;;;;;25.00;99.90;;;;;;5133077;28;20010;-42
2023/07/15 09:40:12;;;;;;;;;;;25.20;99.90;;;;;;5132417;28;20021;-42
2023/07/15 09:42:54;;;;;;;;;;;25.40;99.90;;;;;;5132569;28;20037;-41
2023/07/15 09:45:46;;;;;;;;;;;25.60;99.90;;;;;;5133370;28;19954;-40
2023/07/15 09:48:13;;;;;;;;;;;25.90;99.90;;;;;;5118141;27;19923;-44
2023/07/15 09:50:39;;;;;;;;;;;26.10;99.90;;;;;;5112366;28;19915;-42
2023/07/15 09:53:05;;;;;;;;;;;26.10;99.90;;;;;;5128827;28;19916;-42
2023/07/15 09:55:31;;;;;;;;;;;26.20;99.90;;;;;;5132549;27;19908;-42
2023/07/15 09:58:17;;;;;;;;;;;26.20;99.90;;;;;;5152355;27;19914;-42
2023/07/15 10:00:47;;;;;;;;;;;26.20;99.90;;;;;;5136478;27;20315;-40
2023/07/15 10:03:22;;;;;;;;;;;26.30;99.90;;;;;;5154085;27;19922;-41
2023/07/15 10:05:48;;;;;;;;;;;26.30;99.90;;;;;;5154680;27;19907;-42
2023/07/15 10:08:13;;;;;;;;;;;26.30;99.90;;;;;;5154612;27;19915;-42
2023/07/15 10:10:40;;;;;;;;;;;26.40;99.90;;;;;;5154192;27;19907;-42
2023/07/15 10:13:06;;;;;;;;;;;26.30;99.90;;;;;;5150049;27;20014;-42
2023/07/15 10:15:31;;;;;;;;;;;26.20;99.90;;;;;;5133704;28;20337;-42
2023/07/15 10:18:09;;;;;;;;;;;26.40;99.90;;;;;;5132396;28;19915;-42
2023/07/15 10:20:35;;;;;;;;;;;26.50;99.90;;;;;;5132375;28;20425;-43
2023/07/15 10:23:01;;;;;;;;;;;26.70;99.90;;;;;;5133196;27;20041;-40
2023/07/15 10:25:27;;;;;;;;;;;26.90;99.90;;;;;;5135216;27;20007;-42
2023/07/15 10:28:08;;;;;;;;;;;26.90;99.90;;;;;;5136215;27;19971;-42
2023/07/15 10:30:33;;;;;;;;;;;26.90;99.90;;;;;;5135615;27;20382;-41
2023/07/15 10:33:00;;;;;;;;;;;26.80;99.90;;;;;;5136268;27;19945;-42
2023/07/15 10:35:30;;;;;;;;;;;26.70;99.90;;;;;;5136601;27;19919;-42
2023/07/15 10:38:00;;;;;;;;;;;26.50;99.90;;;;;;5135647;27;19916;-42
2023/07/15 10:40:47;;;;;;;;;;;26.40;99.90;;;;;;5136211;27;20018;-41
2023/07/15 10:43:16;;;;;;;;;;;26.40;99.90;;;;;;5119821;27;20014;-41
2023/07/15 10:45:42;;;;;;;;;;;26.20;99.90;;;;;;5121372;27;20262;-42
2023/07/15 10:48:08;;;;;;;;;;;26.10;99.90;;;;;;5125188;27;19920;-42
2023/07/15 10:50:35;;;;;;;;;;;26.00;99.90;;;;;;5120547;27;19919;-42
2023/07/15 10:53:22;;;;;;;;;;;25.90;99.90;;;;;;5117989;27;19912;-43
2023/07/15 10:56:17;;;;;;;;;;;25.80;99.90;;;;;;5120821;27;19911;-41
2023/07/15 10:58:43;;;;;;;;;;;25.90;99.90;;;;;;5103593;27;19945;-42
2023/07/15 11:01:09;;;;;;;;;;;26.20;99.90;;;;;;5119079;27;19958;-40
2023/07/15 11:03:36;;;;;;;;;;;26.50;99.90;;;;;;5131684;27;19915;-41
2023/07/15 11:06:02;;;;;;;;;;;26.70;99.90;;;;;;5124642;27;20382;-41
2023/07/15 11:08:28;;;;;;;;;;;26.80;99.90;;;;;;5121337;27;19919;-40
2023/07/15 11:10:57;;;;;;;;;;;26.80;99.90;;;;;;5125427;27;20293;-42
2023/07/15 11:13:22;;;;;;;;;;;26.80;99.90;;;;;;5121358;27;19947;-41
2023/07/15 11:15:48;;;;;;;;;;;26.70;99.90;;;;;;5135869;27;19947;-41
2023/07/15 11:18:14;;;;;;;;;;;26.70;99.90;;;;;;5151314;27;20199;-41
2023/07/15 11:20:40;;;;;;;;;;;26.50;99.90;;;;;;5155743;27;19918;-40
2023/07/15 11:23:05;;;;;;;;;;;26.40;99.90;;;;;;5127129;27;19915;-41
2023/07/15 11:25:32;;;;;;;;;;;26.30;99.90;;;;;;5132895;27;20037;-42
2023/07/15 11:28:00;;;;;;;;;;;26.30;99.90;;;;;;5124965;27;19911;-41
2023/07/15 11:30:32;;;;;;;;;;;26.30;99.90;;;;;;5115967;27;19908;-41
2023/07/15 11:32:58;;;;;;;;;;;26.30;99.90;;;;;;5115251;27;20010;-42
2023/07/15 11:35:23;;;;;;;;;;;26.20;99.90;;;;;;5113847;27;20007;-42
2023/07/15 11:37:49;;;;;;;;;;;26.20;99.90;;;;;;5114524;28;20359;-42
2023/07/15 11:40:15;;;;;;;;;;;26.10;99.90;;;;;;5114060;28;19920;-42
2023/07/15 11:42:41;;;;;;;;;;;26.00;99.90;;;;;;5113940;28;20011;-41
2023/07/15 11:45:06;;;;;;;;;;;25.90;99.90;;;;;;5116554;27;19990;-42
2023/07/15 11:47:35;;;;;;;;;;;25.90;99.90;;;;;;5137924;27;20014;-41
2023/07/15 11:50:01;;;;;;;;;;;25.80;99.90;;;;;;5137136;27;19911;-42
2023/07/15 11:52:38;;;;;;;;;;;25.90;99.90;;;;;;5134356;27;20342;-42
2023/07/15 11:55:04;;;;;;;;;;;25.80;99.90;;;;;;5154916;27;19907;-42
2023/07/15 11:57:29;;;;;;;;;;;25.70;99.90;;;;;;5134704;27;19915;-41
2023/07/15 11:59:55;;;;;;;;;;;25.60;99.90;;;;;;5127010;27;19918;-43
2023/07/15 12:02:20;;;;;;;;;;;25.40;99.90;;;;;;5119701;27;19918;-41
2023/07/15 12:04:47;;;;;;;;;;;25.40;99.90;;;;;;5120667;27;19915;-41
2023/07/15 12:07:13;;;;;;;;;;;25.30;99.90;;;;;;5123795;27;19951;-42
2023/07/15 12:09:39;;;;;;;;;;;25.20;99.90;;;;;;5119402;27;19962;-41
2023/07/15 12:12:05;;;;;;;;;;;25.20;99.90;;;;;;5126700;27;19911;-42
2023/07/15 12:14:31;;;;;;;;;;;25.30;99.90;;;;;;5124781;27;19934;-41
2023/07/15 12:16:59;;;;;;;;;;;25.40;99.90;;;;;;5119794;27;19947;-41
2023/07/15 12:19:25;;;;;;;;;;;25.50;99.90;;;;;;5114286;28;19969;-43
2023/07/15 12:21:51;;;;;;;;;;;25.70;99.90;;;;;;5131820;27;19958;-42
2023/07/15 12:24:17;;;;;;;;;;;25.90;99.90;;;;;;5133788;27;19961;-42
2023/07/15 12:26:42;;;;;;;;;;;26.10;99.90;;;;;;5148692;27;19955;-41
2023/07/15 12:29:08;;;;;;;;;;;26.30;99.90;;;;;;5154994;27;20373;-41
2023/07/15 12:31:33;;;;;;;;;;;26.50;99.90;;;;;;5154357;27;20378;-41
2023/07/15 12:33:58;;;;;;;;;;;26.60;99.90;;;;;;5145496;27;19919;-41
2023/07/15 12:36:24;;;;;;;;;;;26.80;99.90;;;;;;5122776;27;19907;-42
2023/07/15 12:38:49;;;;;;;;;;;26.80;99.90;;;;;;5121725;27;20278;-41
2023/07/15 12:41:15;;;;;;;;;;;26.70;99.90;;;;;;5123226;27;19919;-41
2023/07/15 12:43:40;;;;;;;;;;;26.50;99.90;;;;;;5121535;27;20006;-41
2023/07/15 12:46:06;;;;;;;;;;;26.30;99.90;;;;;;5120720;27;20274;-41
2023/07/15 12:48:32;;;;;;;;;;;26.10;99.90;;;;;;5126362;27;19988;-42
2023/07/15 12:50:57;;;;;;;;;;;26.10;99.90;;;;;;5129622;27;19952;-43
2023/07/15 12:53:23;;;;;;;;;;;25.90;99.90;;;;;;5154777;27;19908;-42
2023/07/15 12:55:49;;;;;;;;;;;25.90;99.90;;;;;;5154678;27;19907;-41
2023/07/15 12:58:15;;;;;;;;;;;25.90;99.90;;;;;;5153849;27;20331;-40
2023/07/15 13:00:40;;;;;;;;;;;26.00;99.90;;;;;;5126875;27;19918;-42
2023/07/15 13:03:12;;;;;;;;;;;26.30;99.90;;;;;;5120437;27;20023;-41
2023/07/15 13:05:38;;;;;;;;;;;26.90;99.90;;;;;;5127446;27;19911;-42
2023/07/15 13:08:04;;;;;;;;;;;27.20;99.90;;;;;;5122958;27;20943;-42
2023/07/15 13:10:30;;;;;;;;;;;27.40;99.90;;;;;;5119727;27;19912;-41
2023/07/15 13:12:56;;;;;;;;;;;27.70;99.90;;;;;;5120189;27;19911;-42
2023/07/15 13:15:21;;;;;;;;;;;28.10;99.20;;;;;;5131271;28;19937;-40
2023/07/15 13:17:47;;;;;;;;;;;28.50;99.90;;;;;;5134518;28;19908;-41
2023/07/15 13:20:12;;;;;;;;;;;28.60;97.50;;;;;;5140786;27;20375;-43
2023/07/15 13:22:38;;;;;;;;;;;28.90;96.10;;;;;;5154909;27;20292;-42
2023/07/15 13:25:04;;;;;;;;;;;29.00;95.90;;;;;;5154433;27;19914;-41
2023/07/15 13:27:31;;;;;;;;;;;29.20;96.90;;;;;;5135125;27;19919;-41
2023/07/15 13:29:56;;;;;;;;;;;29.50;95.80;;;;;;5133556;28;20022;-40
2023/07/15 13:32:22;;;;;;;;;;;29.60;94.90;;;;;;5133591;28;20370;-40
2023/07/15 13:34:48;;;;;;;;;;;29.40;95.20;;;;;;5132796;28;19969;-41
2023/07/15 13:37:13;;;;;;;;;;;29.10;93.70;;;;;;5133553;28;20011;-41
2023/07/15 13:39:39;;;;;;;;;;;29.10;95.20;;;;;;5133399;27;19968;-43
2023/07/15 13:42:06;;;;;;;;;;;29.20;95.70;;;;;;5152266;27;19973;-42
2023/07/15 13:44:32;;;;;;;;;;;29.40;94.80;;;;;;5154215;27;20003;-41
2023/07/15 13:46:58;;;;;;;;;;;29.70;95.30;;;;;;5153985;27;19907;-41
2023/07/15 13:49:24;;;;;;;;;;;29.80;94.10;;;;;;5153696;27;20297;-41
2023/07/15 13:51:50;;;;;;;;;;;29.70;93.40;;;;;;5154092;27;19908;-41
2023/07/15 13:54:15;;;;;;;;;;;29.80;93.40;;;;;;5153410;27;19914;-42
2023/07/15 13:56:41;;;;;;;;;;;29.90;92.60;;;;;;5154040;27;19975;-40
2023/07/15 13:59:06;;;;;;;;;;;30.00;91.40;;;;;;5154951;27;19911;-43
2023/07/15 14:01:32;;;;;;;;;;;30.00;90.10;;;;;;5156918;27;20010;-42
2023/07/15 14:03:57;;;;;;;;;;;29.90;85.70;;;;;;5158001;27;19907;-40
2023/07/15 14:06:23;;;;;;;;;;;30.00;86.70;;;;;;5158053;27;19938;-42
2023/07/15 14:08:48;;;;;;;;;;;29.90;85.60;;;;;;5156316;27;19923;-41
2023/07/15 14:11:14;;;;;;;;;;;30.00;88.20;;;;;;5157849;27;20361;-41
2023/07/15 14:13:39;;;;;;;;;;;30.00;88.30;;;;;;5157920;27;20250;-40